createdAt,value
2023-02-13T00:00:03.500Z,1011.83
2023-02-13T00:01:05.286Z,1011.88
2023-02-13T00:02:07.047Z,1011.87
2023-02-13T00:03:08.806Z,1011.8
2023-02-13T00:04:10.467Z,1011.82
2023-02-13T00:05:12.220Z,1011.76
2023-02-13T00:06:13.945Z,1011.75
2023-02-13T00:07:15.707Z,1011.81
2023-02-13T00:08:17.389Z,1011.78
2023-02-13T00:09:19.129Z,1011.82
2023-02-13T00:10:20.902Z,1011.84
2023-02-13T00:11:22.579Z,1011.77
2023-02-13T00:12:24.402Z,1011.77
2023-02-13T00:13:26.048Z,1011.74
2023-02-13T00:14:27.775Z,1011.76
2023-02-13T00:15:29.581Z,1011.67
2023-02-13T00:16:31.289Z,1011.72
2023-02-13T00:17:32.977Z,1011.7
2023-02-13T00:18:34.698Z,1011.71
2023-02-13T00:19:36.578Z,1011.65
2023-02-13T00:20:38.190Z,1011.65
2023-02-13T00:21:39.921Z,1011.66
2023-02-13T00:22:41.629Z,1011.56
2023-02-13T00:23:43.404Z,1011.66
2023-02-13T00:24:45.093Z,1011.62
2023-02-13T00:25:46.855Z,1011.63
2023-02-13T00:26:48.602Z,1011.56
2023-02-13T00:27:50.336Z,1011.65
2023-02-13T00:28:52.035Z,1011.61
2023-02-13T00:29:53.760Z,1011.63
2023-02-13T00:30:56.161Z,1011.55
2023-02-13T00:31:57.397Z,1011.64
2023-02-13T00:32:58.992Z,1011.63
2023-02-13T00:34:00.724Z,1011.57
2023-02-13T00:35:02.433Z,1011.58
2023-02-13T00:36:04.177Z,1011.62
2023-02-13T00:37:05.891Z,1011.59
2023-02-13T00:38:07.849Z,1011.55
2023-02-13T00:39:09.406Z,1011.56
2023-02-13T00:40:11.138Z,1011.59
2023-02-13T00:41:12.851Z,1011.59
2023-02-13T00:42:14.540Z,1011.57
2023-02-13T00:43:16.333Z,1011.53
2023-02-13T00:44:18.067Z,1011.55
2023-02-13T00:45:19.799Z,1011.57
2023-02-13T00:46:21.621Z,1011.61
2023-02-13T00:47:23.219Z,1011.6
2023-02-13T00:48:24.959Z,1011.54
2023-02-13T00:49:26.725Z,1011.55
2023-02-13T00:50:28.472Z,1011.55
2023-02-13T00:51:30.191Z,1011.58
2023-02-13T00:52:31.919Z,1011.53
2023-02-13T00:53:33.640Z,1011.56
2023-02-13T00:54:35.363Z,1011.56
2023-02-13T00:55:37.133Z,1011.54
2023-02-13T00:56:38.886Z,1011.53
2023-02-13T00:57:40.599Z,1011.55
2023-02-13T00:58:42.319Z,1011.55
2023-02-13T00:59:44.042Z,1011.57
2023-02-13T01:00:45.759Z,1011.54
2023-02-13T01:01:47.619Z,1011.55
2023-02-13T01:02:49.270Z,1011.56
2023-02-13T01:03:51.065Z,1011.56
2023-02-13T01:04:52.900Z,1011.6
2023-02-13T01:05:54.452Z,1011.64
2023-02-13T01:06:56.200Z,1011.57
2023-02-13T01:07:57.945Z,1011.58
2023-02-13T01:08:59.690Z,1011.53
2023-02-13T01:10:01.415Z,1011.54
2023-02-13T01:11:03.162Z,1011.57
2023-02-13T01:12:04.877Z,1011.56
2023-02-13T01:13:06.617Z,1011.58
2023-02-13T01:14:08.341Z,1011.55
2023-02-13T01:15:10.094Z,1011.58
2023-02-13T01:16:11.923Z,1011.54
2023-02-13T01:17:14.508Z,1011.58
2023-02-13T01:18:15.295Z,1011.54
2023-02-13T01:19:17.007Z,1011.58
2023-02-13T01:20:18.745Z,1011.56
2023-02-13T01:21:20.509Z,1011.59
2023-02-13T01:22:22.232Z,1011.61
2023-02-13T01:23:23.919Z,1011.61
2023-02-13T01:24:25.683Z,1011.55
2023-02-13T01:25:27.398Z,1011.62
2023-02-13T01:26:29.154Z,1011.61
2023-02-13T01:27:30.920Z,1011.61
2023-02-13T01:28:32.677Z,1011.64
2023-02-13T01:29:34.321Z,1011.65
2023-02-13T01:30:36.069Z,1011.71
2023-02-13T01:31:37.900Z,1011.69
2023-02-13T01:32:39.569Z,1011.67
2023-02-13T01:33:41.256Z,1011.72
2023-02-13T01:34:43.011Z,1011.72
2023-02-13T01:35:44.738Z,1011.7
2023-02-13T01:36:46.462Z,1011.72
2023-02-13T01:37:48.227Z,1011.72
2023-02-13T01:38:49.968Z,1011.72
2023-02-13T01:39:51.703Z,1011.72
2023-02-13T01:40:53.417Z,1011.72
2023-02-13T01:41:55.126Z,1011.69
2023-02-13T01:42:56.924Z,1011.67
2023-02-13T01:43:58.633Z,1011.64
2023-02-13T01:45:00.365Z,1011.67
2023-02-13T01:46:02.092Z,1011.68
2023-02-13T01:47:03.814Z,1011.66
2023-02-13T01:48:06.022Z,1011.61
2023-02-13T01:49:07.280Z,1011.61
2023-02-13T01:50:09.035Z,1011.61
2023-02-13T01:51:10.790Z,1011.65
2023-02-13T01:52:12.469Z,1011.61
2023-02-13T01:53:14.207Z,1011.64
2023-02-13T01:54:15.977Z,1011.71
2023-02-13T01:55:17.725Z,1011.63
2023-02-13T01:56:19.479Z,1011.65
2023-02-13T01:57:21.136Z,1011.63
2023-02-13T01:58:22.909Z,1011.64
2023-02-13T01:59:24.647Z,1011.68
2023-02-13T02:00:26.381Z,1011.66
2023-02-13T02:01:28.191Z,1011.64
2023-02-13T02:02:29.930Z,1011.6
2023-02-13T02:03:31.591Z,1011.56
2023-02-13T02:04:33.346Z,1011.61
2023-02-13T02:05:35.031Z,1011.61
2023-02-13T02:06:36.723Z,1011.6
2023-02-13T02:07:38.470Z,1011.56
2023-02-13T02:08:40.196Z,1011.6
2023-02-13T02:09:41.941Z,1011.65
2023-02-13T02:10:43.661Z,1011.54
2023-02-13T02:11:45.426Z,1011.61
2023-02-13T02:12:47.163Z,1011.59
2023-02-13T02:13:48.873Z,1011.59
2023-02-13T02:14:50.601Z,1011.58
2023-02-13T02:15:52.380Z,1011.61
2023-02-13T02:16:54.083Z,1011.61
2023-02-13T02:17:55.832Z,1011.58
2023-02-13T02:18:57.540Z,1011.54
2023-02-13T02:19:59.268Z,1011.59
2023-02-13T02:21:00.993Z,1011.59
2023-02-13T02:22:02.742Z,1011.54
2023-02-13T02:23:04.484Z,1011.5
2023-02-13T02:24:06.292Z,1011.53
2023-02-13T02:25:07.927Z,1011.54
2023-02-13T02:26:09.679Z,1011.53
2023-02-13T02:27:11.417Z,1011.48
2023-02-13T02:28:13.213Z,1011.52
2023-02-13T02:29:14.883Z,1011.48
2023-02-13T02:30:16.613Z,1011.52
2023-02-13T02:31:18.513Z,1011.44
2023-02-13T02:32:20.099Z,1011.51
2023-02-13T02:33:21.825Z,1011.51
2023-02-13T02:34:23.549Z,1011.49
2023-02-13T02:35:25.362Z,1011.5
2023-02-13T02:36:27.033Z,1011.49
2023-02-13T02:37:28.747Z,1011.46
2023-02-13T02:38:30.518Z,1011.45
2023-02-13T02:39:32.235Z,1011.47
2023-02-13T02:40:33.963Z,1011.48
2023-02-13T02:41:35.679Z,1011.44
2023-02-13T02:42:37.420Z,1011.5
2023-02-13T02:43:39.187Z,1011.47
2023-02-13T02:44:40.915Z,1011.43
2023-02-13T02:45:42.619Z,1011.46
2023-02-13T02:46:44.405Z,1011.47
2023-02-13T02:47:46.091Z,1011.47
2023-02-13T02:48:47.833Z,1011.48
2023-02-13T02:49:49.581Z,1011.49
2023-02-13T02:50:51.270Z,1011.49
2023-02-13T02:51:53.020Z,1011.5
2023-02-13T02:52:54.755Z,1011.49
2023-02-13T02:53:56.483Z,1011.47
2023-02-13T02:54:58.308Z,1011.42
2023-02-13T02:55:59.949Z,1011.51
2023-02-13T02:57:01.679Z,1011.55
2023-02-13T02:58:03.464Z,1011.55
2023-02-13T02:59:05.192Z,1011.57
2023-02-13T03:00:06.947Z,1011.55
2023-02-13T03:01:08.753Z,1011.62
2023-02-13T03:02:10.370Z,1011.57
2023-02-13T03:03:12.101Z,1011.55
2023-02-13T03:04:13.900Z,1011.59
2023-02-13T03:05:15.572Z,1011.6
2023-02-13T03:06:17.306Z,1011.59
2023-02-13T03:07:19.073Z,1011.62
2023-02-13T03:08:20.756Z,1011.58
2023-02-13T03:09:22.500Z,1011.57
2023-02-13T03:10:24.228Z,1011.6
2023-02-13T03:11:25.935Z,1011.56
2023-02-13T03:12:27.667Z,1011.55
2023-02-13T03:13:29.396Z,1011.52
2023-02-13T03:14:31.096Z,1011.53
2023-02-13T03:15:32.835Z,1011.58
2023-02-13T03:16:34.611Z,1011.58
2023-02-13T03:17:36.426Z,1011.59
2023-02-13T03:18:38.002Z,1011.56
2023-02-13T03:19:39.716Z,1011.54
2023-02-13T03:20:41.479Z,1011.54
2023-02-13T03:21:43.290Z,1011.56
2023-02-13T03:22:44.945Z,1011.54
2023-02-13T03:23:46.625Z,1011.56
2023-02-13T03:24:48.408Z,1011.5
2023-02-13T03:25:50.080Z,1011.55
2023-02-13T03:26:51.817Z,1011.54
2023-02-13T03:27:53.528Z,1011.51
2023-02-13T03:28:55.242Z,1011.53
2023-02-13T03:29:57.011Z,1011.6
2023-02-13T03:30:59.144Z,1011.6
2023-02-13T03:32:00.505Z,1011.55
2023-02-13T03:33:02.196Z,1011.55
2023-02-13T03:34:03.957Z,1011.53
2023-02-13T03:35:05.636Z,1011.6
2023-02-13T03:36:07.445Z,1011.53
2023-02-13T03:37:09.100Z,1011.55
2023-02-13T03:38:10.808Z,1011.55
2023-02-13T03:39:12.557Z,1011.54
2023-02-13T03:40:14.391Z,1011.53
2023-02-13T03:41:16.023Z,1011.55
2023-02-13T03:42:17.838Z,1011.52
2023-02-13T03:43:19.461Z,1011.57
2023-02-13T03:44:21.189Z,1011.56
2023-02-13T03:45:22.927Z,1011.55
2023-02-13T03:46:24.651Z,1011.51
2023-02-13T03:47:26.392Z,1011.58
2023-02-13T03:48:28.126Z,1011.61
2023-02-13T03:49:29.834Z,1011.57
2023-02-13T03:50:31.582Z,1011.56
2023-02-13T03:51:33.322Z,1011.65
2023-02-13T03:52:35.053Z,1011.64
2023-02-13T03:53:36.797Z,1011.64
2023-02-13T03:54:38.545Z,1011.63
2023-02-13T03:55:40.268Z,1011.57
2023-02-13T03:56:41.994Z,1011.63
2023-02-13T03:57:43.718Z,1011.63
2023-02-13T03:58:45.459Z,1011.68
2023-02-13T03:59:47.167Z,1011.63
2023-02-13T04:00:48.973Z,1011.65
2023-02-13T04:01:50.698Z,1011.63
2023-02-13T04:02:52.412Z,1011.68
2023-02-13T04:03:54.109Z,1011.67
2023-02-13T04:04:55.871Z,1011.71
2023-02-13T04:05:57.630Z,1011.66
2023-02-13T04:06:59.323Z,1011.64
2023-02-13T04:08:01.060Z,1011.66
2023-02-13T04:09:02.797Z,1011.65
2023-02-13T04:10:04.572Z,1011.68
2023-02-13T04:11:06.246Z,1011.65
2023-02-13T04:12:07.997Z,1011.67
2023-02-13T04:13:09.750Z,1011.71
2023-02-13T04:14:11.495Z,1011.67
2023-02-13T04:15:13.202Z,1011.74
2023-02-13T04:16:14.949Z,1011.7
2023-02-13T04:17:16.642Z,1011.66
2023-02-13T04:18:18.388Z,1011.72
2023-02-13T04:19:20.157Z,1011.71
2023-02-13T04:20:21.868Z,1011.69
2023-02-13T04:21:23.585Z,1011.66
2023-02-13T04:22:25.344Z,1011.64
2023-02-13T04:23:27.270Z,1011.71
2023-02-13T04:24:28.796Z,1011.73
2023-02-13T04:25:30.572Z,1011.69
2023-02-13T04:26:32.267Z,1011.69
2023-02-13T04:27:33.994Z,1011.66
2023-02-13T04:28:35.809Z,1011.7
2023-02-13T04:29:37.483Z,1011.59
2023-02-13T04:30:39.400Z,1011.6
2023-02-13T04:31:41.006Z,1011.67
2023-02-13T04:32:42.677Z,1011.62
2023-02-13T04:33:44.393Z,1011.61
2023-02-13T04:34:46.179Z,1011.67
2023-02-13T04:35:47.860Z,1011.62
2023-02-13T04:36:49.632Z,1011.57
2023-02-13T04:37:51.363Z,1011.56
2023-02-13T04:38:53.082Z,1011.63
2023-02-13T04:39:54.812Z,1011.61
2023-02-13T04:40:56.854Z,1011.58
2023-02-13T04:41:58.287Z,1011.58
2023-02-13T04:43:00.027Z,1011.58
2023-02-13T04:44:01.764Z,1011.55
2023-02-13T04:45:03.499Z,1011.53
2023-02-13T04:46:05.272Z,1011.56
2023-02-13T04:47:06.941Z,1011.54
2023-02-13T04:48:08.674Z,1011.56
2023-02-13T04:49:10.449Z,1011.51
2023-02-13T04:50:12.167Z,1011.5
2023-02-13T04:51:13.895Z,1011.51
2023-02-13T04:52:15.658Z,1011.48
2023-02-13T04:53:17.511Z,1011.52
2023-02-13T04:54:19.101Z,1011.5
2023-02-13T04:55:21.027Z,1011.48
2023-02-13T04:56:22.572Z,1011.5
2023-02-13T04:57:24.299Z,1011.44
2023-02-13T04:58:26.025Z,1011.48
2023-02-13T04:59:27.744Z,1011.52
2023-02-13T05:00:29.500Z,1011.51
2023-02-13T05:01:31.387Z,1011.5
2023-02-13T05:02:32.981Z,1011.54
2023-02-13T05:03:34.678Z,1011.46
2023-02-13T05:04:36.480Z,1011.51
2023-02-13T05:05:38.157Z,1011.52
2023-02-13T05:06:39.882Z,1011.52
2023-02-13T05:07:41.651Z,1011.51
2023-02-13T05:08:43.349Z,1011.53
2023-02-13T05:09:45.083Z,1011.55
2023-02-13T05:10:46.812Z,1011.6
2023-02-13T05:11:48.586Z,1011.56
2023-02-13T05:12:50.338Z,1011.47
2023-02-13T05:13:52.006Z,1011.56
2023-02-13T05:14:53.750Z,1011.54
2023-02-13T05:15:55.552Z,1011.57
2023-02-13T05:16:57.245Z,1011.57
2023-02-13T05:17:58.944Z,1011.56
2023-02-13T05:19:00.688Z,1011.53
2023-02-13T05:20:02.427Z,1011.6
2023-02-13T05:21:04.169Z,1011.56
2023-02-13T05:22:05.917Z,1011.6
2023-02-13T05:23:07.666Z,1011.57
2023-02-13T05:24:09.368Z,1011.56
2023-02-13T05:25:11.107Z,1011.57
2023-02-13T05:26:12.829Z,1011.61
2023-02-13T05:27:14.571Z,1011.56
2023-02-13T05:28:16.314Z,1011.53
2023-02-13T05:29:18.016Z,1011.61
2023-02-13T05:30:19.754Z,1011.58
2023-02-13T05:31:21.601Z,1011.61
2023-02-13T05:32:23.226Z,1011.6
2023-02-13T05:33:24.966Z,1011.61
2023-02-13T05:34:26.736Z,1011.63
2023-02-13T05:35:28.434Z,1011.54
2023-02-13T05:36:30.166Z,1011.63
2023-02-13T05:37:31.923Z,1011.67
2023-02-13T05:38:33.667Z,1011.64
2023-02-13T05:39:35.372Z,1011.64
2023-02-13T05:40:37.106Z,1011.69
2023-02-13T05:41:38.842Z,1011.67
2023-02-13T05:42:40.708Z,1011.52
2023-02-13T05:43:42.332Z,1011.66
2023-02-13T05:44:44.031Z,1011.66
2023-02-13T05:45:45.770Z,1011.66
2023-02-13T05:46:47.511Z,1011.62
2023-02-13T05:47:49.236Z,1011.66
2023-02-13T05:48:50.970Z,1011.66
2023-02-13T05:49:52.713Z,1011.69
2023-02-13T05:50:54.790Z,1011.65
2023-02-13T05:51:56.211Z,1011.67
2023-02-13T05:52:57.931Z,1011.68
2023-02-13T05:53:59.667Z,1011.67
2023-02-13T05:55:01.391Z,1011.61
2023-02-13T05:56:03.220Z,1011.62
2023-02-13T05:57:04.863Z,1011.65
2023-02-13T05:58:06.736Z,1011.64
2023-02-13T05:59:08.326Z,1011.66
2023-02-13T06:00:10.071Z,1011.6
2023-02-13T06:01:11.791Z,1011.67
2023-02-13T06:02:13.533Z,1011.65
2023-02-13T06:03:15.270Z,1011.65
2023-02-13T06:04:17.052Z,1011.62
2023-02-13T06:05:18.736Z,1011.56
2023-02-13T06:06:20.437Z,1011.61
2023-02-13T06:07:22.192Z,1011.61
2023-02-13T06:08:23.974Z,1011.62
2023-02-13T06:09:25.641Z,1011.62
2023-02-13T06:10:27.390Z,1011.65
2023-02-13T06:11:29.116Z,1011.64
2023-02-13T06:12:30.878Z,1011.66
2023-02-13T06:13:32.621Z,1011.65
2023-02-13T06:14:34.326Z,1011.64
2023-02-13T06:15:36.056Z,1011.62
2023-02-13T06:16:37.791Z,1011.63
2023-02-13T06:17:39.526Z,1011.68
2023-02-13T06:18:41.261Z,1011.69
2023-02-13T06:19:42.994Z,1011.65
2023-02-13T06:20:44.726Z,1011.64
2023-02-13T06:21:46.485Z,1011.68
2023-02-13T06:22:48.199Z,1011.63
2023-02-13T06:23:49.914Z,1011.63
2023-02-13T06:24:51.644Z,1011.62
2023-02-13T06:25:53.392Z,1011.63
2023-02-13T06:26:55.123Z,1011.61
2023-02-13T06:27:56.870Z,1011.63
2023-02-13T06:28:58.591Z,1011.63
2023-02-13T06:30:00.335Z,1011.59
2023-02-13T06:31:02.555Z,1011.65
2023-02-13T06:32:03.863Z,1011.67
2023-02-13T06:33:05.556Z,1011.62
2023-02-13T06:34:07.261Z,1011.61
2023-02-13T06:35:08.994Z,1011.59
2023-02-13T06:36:10.704Z,1011.65
2023-02-13T06:37:12.456Z,1011.64
2023-02-13T06:38:14.183Z,1011.69
2023-02-13T06:39:15.956Z,1011.65
2023-02-13T06:40:17.709Z,1011.64
2023-02-13T06:41:19.408Z,1011.64
2023-02-13T06:42:21.132Z,1011.64
2023-02-13T06:43:22.866Z,1011.69
2023-02-13T06:44:24.588Z,1011.65
2023-02-13T06:45:26.332Z,1011.68
2023-02-13T06:46:28.119Z,1011.72
2023-02-13T06:47:29.824Z,1011.72
2023-02-13T06:48:31.536Z,1011.67
2023-02-13T06:49:33.248Z,1011.7
2023-02-13T06:50:35.004Z,1011.71
2023-02-13T06:51:36.729Z,1011.66
2023-02-13T06:52:38.472Z,1011.73
2023-02-13T06:53:40.191Z,1011.69
2023-02-13T06:54:47.680Z,1011.68
2023-02-13T06:55:43.762Z,1011.65
2023-02-13T06:56:45.405Z,1011.66
2023-02-13T06:57:47.154Z,1011.66
2023-02-13T06:58:48.870Z,1011.67
2023-02-13T06:59:50.625Z,1011.67
2023-02-13T07:00:52.432Z,1011.7
2023-02-13T07:01:54.062Z,1011.72
2023-02-13T07:02:55.945Z,1011.67
2023-02-13T07:03:57.543Z,1011.69
2023-02-13T07:04:59.277Z,1011.68
2023-02-13T07:06:00.989Z,1011.72
2023-02-13T07:07:02.740Z,1011.68
2023-02-13T07:08:04.485Z,1011.71
2023-02-13T07:09:06.207Z,1011.67
2023-02-13T07:10:07.943Z,1011.69
2023-02-13T07:11:09.779Z,1011.74
2023-02-13T07:12:11.407Z,1011.7
2023-02-13T07:13:13.139Z,1011.72
2023-02-13T07:14:14.868Z,1011.68
2023-02-13T07:15:16.593Z,1011.71
2023-02-13T07:16:18.394Z,1011.69
2023-02-13T07:17:20.051Z,1011.67
2023-02-13T07:18:21.869Z,1011.67
2023-02-13T07:19:23.712Z,1011.69
2023-02-13T07:20:25.290Z,1011.69
2023-02-13T07:21:27.052Z,1011.69
2023-02-13T07:22:28.744Z,1011.7
2023-02-13T07:23:30.490Z,1011.71
2023-02-13T07:24:32.213Z,1011.72
2023-02-13T07:25:33.986Z,1011.75
2023-02-13T07:26:35.674Z,1011.77
2023-02-13T07:27:37.416Z,1011.73
2023-02-13T07:28:39.190Z,1011.71
2023-02-13T07:29:40.895Z,1011.74
2023-02-13T07:30:42.682Z,1011.74
2023-02-13T07:31:44.469Z,1011.74
2023-02-13T07:32:46.097Z,1011.78
2023-02-13T07:33:47.823Z,1011.71
2023-02-13T07:35:01.182Z,1011.66
2023-02-13T07:35:51.332Z,1011.7
2023-02-13T07:36:53.042Z,1011.72
2023-02-13T07:37:54.753Z,1011.75
2023-02-13T07:38:56.495Z,1011.73
2023-02-13T07:39:58.221Z,1011.71
2023-02-13T07:40:59.963Z,1011.71
2023-02-13T07:42:01.708Z,1011.74
2023-02-13T07:43:03.451Z,1011.7
2023-02-13T07:44:05.210Z,1011.7
2023-02-13T07:45:06.888Z,1011.73
2023-02-13T07:46:08.631Z,1011.68
2023-02-13T07:47:10.530Z,1011.76
2023-02-13T07:48:12.097Z,1011.74
2023-02-13T07:49:13.833Z,1011.79
2023-02-13T07:50:15.560Z,1011.8
2023-02-13T07:51:17.337Z,1011.75
2023-02-13T07:52:19.037Z,1011.74
2023-02-13T07:53:20.775Z,1011.68
2023-02-13T07:54:22.541Z,1011.72
2023-02-13T07:55:24.252Z,1011.72
2023-02-13T07:56:25.989Z,1011.7
2023-02-13T07:57:27.710Z,1011.74
2023-02-13T07:58:29.423Z,1011.76
2023-02-13T07:59:31.158Z,1011.79
2023-02-13T08:00:32.909Z,1011.71
2023-02-13T08:01:34.685Z,1011.75
2023-02-13T08:02:36.386Z,1011.76
2023-02-13T08:03:38.195Z,1011.75
2023-02-13T08:04:39.849Z,1011.71
2023-02-13T08:05:41.576Z,1011.76
2023-02-13T08:06:43.319Z,1011.75
2023-02-13T08:07:45.066Z,1011.79
2023-02-13T08:08:46.776Z,1011.77
2023-02-13T08:09:48.514Z,1011.75
2023-02-13T08:10:50.289Z,1011.72
2023-02-13T08:11:51.996Z,1011.78
2023-02-13T08:12:53.713Z,1011.73
2023-02-13T08:13:55.453Z,1011.7
2023-02-13T08:14:57.174Z,1011.76
2023-02-13T08:15:59.215Z,1011.76
2023-02-13T08:17:00.663Z,1011.75
2023-02-13T08:18:02.374Z,1011.72
2023-02-13T08:19:04.122Z,1011.71
2023-02-13T08:20:05.843Z,1011.74
2023-02-13T08:21:07.564Z,1011.74
2023-02-13T08:22:09.311Z,1011.75
2023-02-13T08:23:11.067Z,1011.66
2023-02-13T08:24:12.739Z,1011.72
2023-02-13T08:25:14.468Z,1011.76
2023-02-13T08:26:16.184Z,1011.74
2023-02-13T08:27:17.937Z,1011.71
2023-02-13T08:28:19.710Z,1011.74
2023-02-13T08:29:21.399Z,1011.66
2023-02-13T08:30:23.156Z,1011.68
2023-02-13T08:31:25.032Z,1011.72
2023-02-13T08:32:26.604Z,1011.7
2023-02-13T08:33:28.331Z,1011.71
2023-02-13T08:34:30.056Z,1011.73
2023-02-13T08:35:31.805Z,1011.71
2023-02-13T08:36:33.518Z,1011.72
2023-02-13T08:37:35.270Z,1011.75
2023-02-13T08:38:36.996Z,1011.7
2023-02-13T08:39:38.737Z,1011.72
2023-02-13T08:40:40.456Z,1011.74
2023-02-13T08:41:42.194Z,1011.73
2023-02-13T08:42:43.974Z,1011.74
2023-02-13T08:43:45.661Z,1011.74
2023-02-13T08:44:47.400Z,1011.69
2023-02-13T08:45:49.220Z,1011.73
2023-02-13T08:46:50.878Z,1011.78
2023-02-13T08:47:52.694Z,1011.74
2023-02-13T08:48:54.346Z,1011.74
2023-02-13T08:49:56.073Z,1011.74
2023-02-13T08:50:57.799Z,1011.72
2023-02-13T08:51:59.535Z,1011.74
2023-02-13T08:53:01.302Z,1011.74
2023-02-13T08:54:03.032Z,1011.8
2023-02-13T08:55:04.726Z,1011.79
2023-02-13T08:56:06.486Z,1011.78
2023-02-13T08:57:08.206Z,1011.82
2023-02-13T08:58:09.953Z,1011.83
2023-02-13T08:59:11.686Z,1011.79
2023-02-13T09:00:13.433Z,1011.77
2023-02-13T09:01:15.213Z,1011.72
2023-02-13T09:02:16.969Z,1011.81
2023-02-13T09:03:18.754Z,1011.79
2023-02-13T09:04:20.347Z,1011.75
2023-02-13T09:05:22.073Z,1011.78
2023-02-13T09:06:23.817Z,1011.77
2023-02-13T09:07:25.547Z,1011.76
2023-02-13T09:08:27.277Z,1011.79
2023-02-13T09:09:29.028Z,1011.81
2023-02-13T09:10:30.828Z,1011.77
2023-02-13T09:11:32.516Z,1011.79
2023-02-13T09:12:34.242Z,1011.79
2023-02-13T09:13:35.937Z,1011.81
2023-02-13T09:14:37.684Z,1011.8
2023-02-13T09:15:39.410Z,1011.79
2023-02-13T09:16:41.204Z,1011.76
2023-02-13T09:17:42.882Z,1011.78
2023-02-13T09:18:44.603Z,1011.8
2023-02-13T09:19:46.359Z,1011.81
2023-02-13T09:20:48.102Z,1011.82
2023-02-13T09:21:49.861Z,1011.85
2023-02-13T09:22:51.538Z,1011.82
2023-02-13T09:23:53.274Z,1011.81
2023-02-13T09:24:55.012Z,1011.86
2023-02-13T09:25:57.119Z,1011.81
2023-02-13T09:26:58.509Z,1011.84
2023-02-13T09:28:00.332Z,1011.82
2023-02-13T09:29:02.005Z,1011.72
2023-02-13T09:30:03.689Z,1011.83
2023-02-13T09:31:05.657Z,1011.8
2023-02-13T09:32:07.310Z,1011.82
2023-02-13T09:33:08.896Z,1011.76
2023-02-13T09:34:10.626Z,1011.8
2023-02-13T09:35:12.359Z,1011.83
2023-02-13T09:36:14.131Z,1011.84
2023-02-13T09:37:15.825Z,1011.79
2023-02-13T09:38:17.583Z,1011.82
2023-02-13T09:39:19.291Z,1011.83
2023-02-13T09:40:21.020Z,1011.85
2023-02-13T09:41:22.760Z,1011.84
2023-02-13T09:42:24.511Z,1011.85
2023-02-13T09:43:26.225Z,1011.84
2023-02-13T09:44:28.011Z,1011.88
2023-02-13T09:45:29.698Z,1011.85
2023-02-13T09:46:31.467Z,1011.89
2023-02-13T09:47:33.195Z,1011.88
2023-02-13T09:48:34.910Z,1011.87
2023-02-13T09:49:36.633Z,1011.87
2023-02-13T09:50:38.370Z,1011.89
2023-02-13T09:51:40.116Z,1011.87
2023-02-13T09:52:41.844Z,1011.88
2023-02-13T09:53:43.626Z,1011.87
2023-02-13T09:54:45.301Z,1011.92
2023-02-13T09:55:47.055Z,1011.86
2023-02-13T09:56:48.780Z,1011.88
2023-02-13T09:57:50.514Z,1011.86
2023-02-13T09:58:52.243Z,1011.94
2023-02-13T09:59:53.978Z,1011.92
2023-02-13T10:00:55.766Z,1011.94
2023-02-13T10:01:57.561Z,1011.93
2023-02-13T10:02:59.245Z,1011.94
2023-02-13T10:04:00.918Z,1011.95
2023-02-13T10:05:02.765Z,1011.91
2023-02-13T10:06:04.514Z,1011.95
2023-02-13T10:07:06.140Z,1011.97
2023-02-13T10:08:07.851Z,1011.94
2023-02-13T10:09:09.585Z,1011.9
2023-02-13T10:10:11.357Z,1011.95
2023-02-13T10:11:13.129Z,1011.93
2023-02-13T10:12:14.793Z,1011.92
2023-02-13T10:13:16.528Z,1011.93
2023-02-13T10:14:18.249Z,1011.93
2023-02-13T10:15:20.012Z,1011.91
2023-02-13T10:16:22.003Z,1011.85
2023-02-13T10:17:23.480Z,1011.83
2023-02-13T10:18:25.328Z,1011.86
2023-02-13T10:19:26.967Z,1011.85
2023-02-13T10:20:28.667Z,1011.89
2023-02-13T10:21:30.415Z,1011.9
2023-02-13T10:22:32.148Z,1011.89
2023-02-13T10:23:33.880Z,1011.87
2023-02-13T10:24:35.609Z,1011.92
2023-02-13T10:25:37.344Z,1011.92
2023-02-13T10:26:39.101Z,1011.86
2023-02-13T10:27:40.834Z,1011.88
2023-02-13T10:28:42.705Z,1011.87
2023-02-13T10:29:44.280Z,1011.87
2023-02-13T10:30:46.119Z,1011.87
2023-02-13T10:31:47.877Z,1011.83
2023-02-13T10:32:49.511Z,1011.82
2023-02-13T10:33:51.264Z,1011.8
2023-02-13T10:34:52.954Z,1011.84
2023-02-13T10:35:54.975Z,1011.79
2023-02-13T10:36:56.484Z,1011.84
2023-02-13T10:37:58.172Z,1011.85
2023-02-13T10:38:59.883Z,1011.82
2023-02-13T10:40:01.648Z,1011.81
2023-02-13T10:41:03.416Z,1011.76
2023-02-13T10:42:05.128Z,1011.78
2023-02-13T10:43:06.846Z,1011.77
2023-02-13T10:44:08.586Z,1011.75
2023-02-13T10:45:10.301Z,1011.71
2023-02-13T10:46:12.097Z,1011.73
2023-02-13T10:47:13.755Z,1011.68
2023-02-13T10:48:15.504Z,1011.66
2023-02-13T10:49:17.280Z,1011.63
2023-02-13T10:50:19.113Z,1011.65
2023-02-13T10:51:20.715Z,1011.64
2023-02-13T10:52:22.434Z,1011.65
2023-02-13T10:53:24.167Z,1011.68
2023-02-13T10:54:25.894Z,1011.66
2023-02-13T10:55:27.654Z,1011.61
2023-02-13T10:56:29.453Z,1011.59
2023-02-13T10:57:31.117Z,1011.6
2023-02-13T10:58:32.847Z,1011.59
2023-02-13T10:59:34.589Z,1011.53
2023-02-13T11:00:36.320Z,1011.53
2023-02-13T11:01:38.123Z,1011.5
2023-02-13T11:02:39.806Z,1011.53
2023-02-13T11:03:41.545Z,1011.55
2023-02-13T11:04:43.306Z,1011.56
2023-02-13T11:05:44.998Z,1011.41
2023-02-13T11:06:46.707Z,1011.41
2023-02-13T11:07:48.442Z,1011.36
2023-02-13T11:08:50.158Z,1011.39
2023-02-13T11:09:51.890Z,1011.37
2023-02-13T11:10:53.656Z,1011.39
2023-02-13T11:11:55.379Z,1011.37
2023-02-13T11:12:57.247Z,1011.31
2023-02-13T11:13:58.878Z,1011.34
2023-02-13T11:15:00.584Z,1011.31
2023-02-13T11:16:02.722Z,1011.35
2023-02-13T11:17:04.065Z,1011.41
2023-02-13T11:18:05.770Z,1011.32
2023-02-13T11:19:07.505Z,1011.37
2023-02-13T11:20:09.243Z,1011.37
2023-02-13T11:21:10.994Z,1011.36
2023-02-13T11:22:12.762Z,1011.36
2023-02-13T11:23:14.465Z,1011.38
2023-02-13T11:24:16.212Z,1011.38
2023-02-13T11:25:17.938Z,1011.46
2023-02-13T11:26:19.657Z,1011.39
2023-02-13T11:27:22.314Z,1011.46
2023-02-13T11:28:23.205Z,1011.43
2023-02-13T11:29:24.857Z,1011.46
2023-02-13T11:30:26.593Z,1011.42
2023-02-13T11:31:28.473Z,1011.44
2023-02-13T11:32:30.210Z,1011.41
2023-02-13T11:33:31.786Z,1011.42
2023-02-13T11:34:33.514Z,1011.44
2023-02-13T11:35:35.258Z,1011.4
2023-02-13T11:36:37.034Z,1011.43
2023-02-13T11:37:38.727Z,1011.39
2023-02-13T11:38:40.482Z,1011.41
2023-02-13T11:39:42.204Z,1011.42
2023-02-13T11:40:43.929Z,1011.39
2023-02-13T11:41:45.679Z,1011.41
2023-02-13T11:42:47.428Z,1011.36
2023-02-13T11:43:49.143Z,1011.4
2023-02-13T11:44:50.881Z,1011.41
2023-02-13T11:45:52.613Z,1011.39
2023-02-13T11:46:54.458Z,1011.41
2023-02-13T11:47:56.067Z,1011.39
2023-02-13T11:48:57.819Z,1011.42
2023-02-13T11:49:59.726Z,1011.41
2023-02-13T11:51:01.282Z,1011.38
2023-02-13T11:52:03.036Z,1011.38
2023-02-13T11:53:04.738Z,1011.36
2023-02-13T11:54:06.469Z,1011.37
2023-02-13T11:55:08.207Z,1011.4
2023-02-13T11:56:09.945Z,1011.36
2023-02-13T11:57:11.675Z,1011.38
2023-02-13T11:58:13.544Z,1011.34
2023-02-13T11:59:15.160Z,1011.35
2023-02-13T12:00:16.921Z,1011.35
2023-02-13T12:01:18.646Z,1011.32
2023-02-13T12:02:20.483Z,1011.31
2023-02-13T12:03:22.437Z,1011.33
2023-02-13T12:04:23.863Z,1011.33
2023-02-13T12:05:25.571Z,1011.31
2023-02-13T12:06:27.302Z,1011.3
2023-02-13T12:07:29.035Z,1011.27
2023-02-13T12:08:30.763Z,1011.33
2023-02-13T12:09:32.530Z,1011.23
2023-02-13T12:10:34.227Z,1011.3
2023-02-13T12:11:35.964Z,1011.26
2023-02-13T12:12:37.715Z,1011.26
2023-02-13T12:13:39.443Z,1011.29
2023-02-13T12:14:41.189Z,1011.25
2023-02-13T12:15:42.927Z,1011.2
2023-02-13T12:16:44.742Z,1011.21
2023-02-13T12:17:46.377Z,1011.19
2023-02-13T12:18:48.111Z,1011.12
2023-02-13T12:19:49.861Z,1011.13
2023-02-13T12:20:51.583Z,1011.06
2023-02-13T12:21:53.339Z,1011.1
2023-02-13T12:22:55.051Z,1011.1
2023-02-13T12:23:56.778Z,1011.08
2023-02-13T12:24:58.506Z,1011.03
2023-02-13T12:26:00.754Z,1011.05
2023-02-13T12:27:01.977Z,1011.03
2023-02-13T12:28:03.806Z,1010.99